sensor_id;sensor_type;location;lat;lon;timestamp;pressure;altitude;pressure_sealevel;temperature;humidity
12636;BME280;6383;50.830;7.210;2023-02-13T00:00:48;102948.63;;;9.95;80.83
12636;BME280;6383;50.830;7.210;2023-02-13T00:03:17;102949.72;;;9.94;80.29
12636;BME280;6383;50.830;7.210;2023-02-13T00:05:46;102960.84;;;9.92;80.36
12636;BME280;6383;50.830;7.210;2023-02-13T00:08:13;102948.06;;;9.93;80.64
12636;BME280;6383;50.830;7.210;2023-02-13T00:10:41;102943.44;;;9.93;80.00
12636;BME280;6383;50.830;7.210;2023-02-13T00:13:09;102949.72;;;9.94;80.90
12636;BME280;6383;50.830;7.210;2023-02-13T00:15:37;102946.72;;;9.95;80.94
12636;BME280;6383;50.830;7.210;2023-02-13T00:18:07;102948.38;;;9.96;80.42
12636;BME280;6383;50.830;7.210;2023-02-13T00:20:35;102944.59;;;9.97;80.40
12636;BME280;6383;50.830;7.210;2023-02-13T00:23:03;102940.00;;;9.98;80.31
12636;BME280;6383;50.830;7.210;2023-02-13T00:25:32;102940.22;;;9.96;79.84
12636;BME280;6383;50.830;7.210;2023-02-13T00:28:01;102943.19;;;9.95;79.94
12636;BME280;6383;50.830;7.210;2023-02-13T00:30:28;102934.47;;;9.93;80.46
12636;BME280;6383;50.830;7.210;2023-02-13T00:32:56;102932.56;;;9.93;80.17
12636;BME280;6383;50.830;7.210;2023-02-13T00:35:26;102954.31;;;9.93;79.59
12636;BME280;6383;50.830;7.210;2023-02-13T00:37:55;102934.94;;;9.89;79.75
12636;BME280;6383;50.830;7.210;2023-02-13T00:40:23;102945.22;;;9.87;79.53
12636;BME280;6383;50.830;7.210;2023-02-13T00:42:51;102946.28;;;9.86;79.59
12636;BME280;6383;50.830;7.210;2023-02-13T00:45:19;102933.16;;;9.83;79.57
12636;BME280;6383;50.830;7.210;2023-02-13T00:47:47;102943.19;;;9.83;79.67
12636;BME280;6383;50.830;7.210;2023-02-13T00:50:15;102929.81;;;9.81;79.51
12636;BME280;6383;50.830;7.210;2023-02-13T00:52:44;102924.38;;;9.81;79.76
12636;BME280;6383;50.830;7.210;2023-02-13T00:55:12;102923.56;;;9.81;80.01
12636;BME280;6383;50.830;7.210;2023-02-13T00:57:41;102919.78;;;9.82;80.41
12636;BME280;6383;50.830;7.210;2023-02-13T01:00:11;102930.88;;;9.80;79.97
12636;BME280;6383;50.830;7.210;2023-02-13T01:02:40;102921.34;;;9.78;79.76
12636;BME280;6383;50.830;7.210;2023-02-13T01:05:09;102931.38;;;9.77;80.22
12636;BME280;6383;50.830;7.210;2023-02-13T01:07:37;102916.97;;;9.77;79.97
12636;BME280;6383;50.830;7.210;2023-02-13T01:10:07;102924.06;;;9.78;79.86
12636;BME280;6383;50.830;7.210;2023-02-13T01:12:41;102922.63;;;9.75;79.83
12636;BME280;6383;50.830;7.210;2023-02-13T01:15:10;102913.06;;;9.73;80.09
12636;BME280;6383;50.830;7.210;2023-02-13T01:17:38;102913.28;;;9.71;80.71
12636;BME280;6383;50.830;7.210;2023-02-13T01:20:07;102917.06;;;9.70;79.89
12636;BME280;6383;50.830;7.210;2023-02-13T01:22:34;102904.31;;;9.71;80.26
12636;BME280;6383;50.830;7.210;2023-02-13T01:25:05;102907.84;;;9.71;80.88
12636;BME280;6383;50.830;7.210;2023-02-13T01:27:34;102905.97;;;9.72;80.58
12636;BME280;6383;50.830;7.210;2023-02-13T01:30:06;102909.28;;;9.74;80.21
12636;BME280;6383;50.830;7.210;2023-02-13T01:32:39;102908.44;;;9.73;80.05
12636;BME280;6383;50.830;7.210;2023-02-13T01:35:07;102904.06;;;9.72;80.26
12636;BME280;6383;50.830;7.210;2023-02-13T01:37:34;102905.13;;;9.71;80.28
12636;BME280;6383;50.830;7.210;2023-02-13T01:40:03;102901.34;;;9.72;80.87
12636;BME280;6383;50.830;7.210;2023-02-13T01:42:34;102904.91;;;9.73;80.40
12636;BME280;6383;50.830;7.210;2023-02-13T01:45:04;102899.47;;;9.73;80.91
12636;BME280;6383;50.830;7.210;2023-02-13T01:47:40;102904.06;;;9.72;80.31
12636;BME280;6383;50.830;7.210;2023-02-13T01:50:14;102894.50;;;9.70;80.14
12636;BME280;6383;50.830;7.210;2023-02-13T01:52:47;102898.28;;;9.69;80.27
12636;BME280;6383;50.830;7.210;2023-02-13T01:55:17;102897.44;;;9.68;80.01
12636;BME280;6383;50.830;7.210;2023-02-13T01:57:50;102895.56;;;9.69;80.87
12636;BME280;6383;50.830;7.210;2023-02-13T02:00:21;102898.03;;;9.70;81.04
12636;BME280;6383;50.830;7.210;2023-02-13T02:02:51;102900.53;;;9.72;80.42
12636;BME280;6383;50.830;7.210;2023-02-13T02:05:21;102907.84;;;9.71;80.71
12636;BME280;6383;50.830;7.210;2023-02-13T02:07:52;102904.31;;;9.71;80.98
12636;BME280;6383;50.830;7.210;2023-02-13T02:10:22;102901.59;;;9.71;81.26
12636;BME280;6383;50.830;7.210;2023-02-13T02:12:57;102902.41;;;9.71;80.81
12636;BME280;6383;50.830;7.210;2023-02-13T02:15:29;102907.25;;;9.69;79.99
12636;BME280;6383;50.830;7.210;2023-02-13T02:17:58;102912.94;;;9.68;80.10
12636;BME280;6383;50.830;7.210;2023-02-13T02:20:39;102911.28;;;9.67;80.62
12636;BME280;6383;50.830;7.210;2023-02-13T02:23:42;102915.41;;;9.69;80.25
12636;BME280;6383;50.830;7.210;2023-02-13T02:29:26;102907.97;;;9.65;80.16
12636;BME280;6383;50.830;7.210;2023-02-13T02:32:16;102908.22;;;9.63;80.35
12636;BME280;6383;50.830;7.210;2023-02-13T02:34:54;102903.03;;;9.62;79.79
12636;BME280;6383;50.830;7.210;2023-02-13T02:37:50;102911.19;;;9.62;80.29
12636;BME280;6383;50.830;7.210;2023-02-13T02:40:25;102902.41;;;9.60;80.00
12636;BME280;6383;50.830;7.210;2023-02-13T02:43:07;102905.16;;;9.60;80.16
12636;BME280;6383;50.830;7.210;2023-02-13T02:45:48;102901.81;;;9.58;80.11
12636;BME280;6383;50.830;7.210;2023-02-13T02:48:25;102902.66;;;9.58;80.51
12636;BME280;6383;50.830;7.210;2023-02-13T02:51:15;102895.56;;;9.57;79.49
12636;BME280;6383;50.830;7.210;2023-02-13T02:53:52;102899.56;;;9.54;80.39
12636;BME280;6383;50.830;7.210;2023-02-13T02:56:27;102906.66;;;9.55;80.43
12636;BME280;6383;50.830;7.210;2023-02-13T02:59:01;102902.06;;;9.56;80.57
12636;BME280;6383;50.830;7.210;2023-02-13T03:01:49;102901.81;;;9.58;80.24
12636;BME280;6383;50.830;7.210;2023-02-13T03:04:40;102901.38;;;9.61;80.48
12636;BME280;6383;50.830;7.210;2023-02-13T03:07:28;102893.22;;;9.61;80.64
12636;BME280;6383;50.830;7.210;2023-02-13T03:10:02;102909.28;;;9.62;80.50
12636;BME280;6383;50.830;7.210;2023-02-13T03:12:54;102907.63;;;9.61;80.75
12636;BME280;6383;50.830;7.210;2023-02-13T03:15:51;102903.84;;;9.62;80.51
12636;BME280;6383;50.830;7.210;2023-02-13T03:18:39;102910.13;;;9.63;80.94
12636;BME280;6383;50.830;7.210;2023-02-13T03:21:34;102909.06;;;9.64;80.43
12636;BME280;6383;50.830;7.210;2023-02-13T03:24:32;102909.88;;;9.64;80.18
12636;BME280;6383;50.830;7.210;2023-02-13T03:27:07;102914.50;;;9.64;80.87
12636;BME280;6383;50.830;7.210;2023-02-13T03:29:43;102909.88;;;9.64;80.32
12636;BME280;6383;50.830;7.210;2023-02-13T03:32:36;102913.41;;;9.65;80.18
12636;BME280;6383;50.830;7.210;2023-02-13T03:35:24;102910.94;;;9.63;79.87
12636;BME280;6383;50.830;7.210;2023-02-13T03:38:17;102915.78;;;9.61;79.54
12636;BME280;6383;50.830;7.210;2023-02-13T03:40:50;102917.44;;;9.62;79.73
12636;BME280;6383;50.830;7.210;2023-02-13T03:43:43;102910.34;;;9.61;80.05
12636;BME280;6383;50.830;7.210;2023-02-13T03:46:14;102916.00;;;9.60;79.85
12636;BME280;6383;50.830;7.210;2023-02-13T03:48:44;102912.69;;;9.58;79.97
12636;BME280;6383;50.830;7.210;2023-02-13T03:51:35;102911.63;;;9.59;79.61
12636;BME280;6383;50.830;7.210;2023-02-13T03:54:13;102914.34;;;9.59;79.45
12636;BME280;6383;50.830;7.210;2023-02-13T03:56:44;102910.59;;;9.60;80.13
12636;BME280;6383;50.830;7.210;2023-02-13T03:59:33;102913.31;;;9.60;79.94
12636;BME280;6383;50.830;7.210;2023-02-13T04:02:07;102913.31;;;9.60;79.63
12636;BME280;6383;50.830;7.210;2023-02-13T04:04:43;102912.69;;;9.58;79.62
12636;BME280;6383;50.830;7.210;2023-02-13T04:07:15;102913.53;;;9.58;79.50
12636;BME280;6383;50.830;7.210;2023-02-13T04:09:59;102908.91;;;9.59;79.66
12636;BME280;6383;50.830;7.210;2023-02-13T04:12:36;102903.72;;;9.57;78.98
12636;BME280;6383;50.830;7.210;2023-02-13T04:15:09;102916.47;;;9.57;79.57
12636;BME280;6383;50.830;7.210;2023-02-13T04:17:41;102909.38;;;9.55;79.67
12636;BME280;6383;50.830;7.210;2023-02-13T04:20:11;102921.09;;;9.56;79.64
12636;BME280;6383;50.830;7.210;2023-02-13T04:22:41;102906.66;;;9.55;79.25
12636;BME280;6383;50.830;7.210;2023-02-13T04:25:14;102914.81;;;9.55;78.70
12636;BME280;6383;50.830;7.210;2023-02-13T04:27:44;102915.66;;;9.56;78.76
12636;BME280;6383;50.830;7.210;2023-02-13T04:30:13;102914.22;;;9.53;78.93
12636;BME280;6383;50.830;7.210;2023-02-13T04:32:40;102920.72;;;9.52;78.77
12636;BME280;6383;50.830;7.210;2023-02-13T04:35:08;102915.53;;;9.51;78.52
12636;BME280;6383;50.830;7.210;2023-02-13T04:37:39;102916.13;;;9.53;78.49
12636;BME280;6383;50.830;7.210;2023-02-13T04:40:08;102913.63;;;9.51;78.74
12636;BME280;6383;50.830;7.210;2023-02-13T04:42:38;102913.31;;;9.48;78.95
12636;BME280;6383;50.830;7.210;2023-02-13T04:45:07;102913.06;;;9.49;78.77
12636;BME280;6383;50.830;7.210;2023-02-13T04:47:35;102916.72;;;9.43;78.49
12636;BME280;6383;50.830;7.210;2023-02-13T04:50:03;102914.22;;;9.42;78.33
12636;BME280;6383;50.830;7.210;2023-02-13T04:52:32;102911.75;;;9.40;78.87
12636;BME280;6383;50.830;7.210;2023-02-13T04:55:00;102903.34;;;9.42;78.30
12636;BME280;6383;50.830;7.210;2023-02-13T04:57:29;102906.31;;;9.40;78.07
12636;BME280;6383;50.830;7.210;2023-02-13T04:59:59;102899.94;;;9.35;78.67
12636;BME280;6383;50.830;7.210;2023-02-13T05:02:29;102900.16;;;9.33;78.15
12636;BME280;6383;50.830;7.210;2023-02-13T05:04:59;102897.69;;;9.32;79.06
12636;BME280;6383;50.830;7.210;2023-02-13T05:07:26;102898.97;;;9.29;78.79
12636;BME280;6383;50.830;7.210;2023-02-13T05:09:55;102907.13;;;9.29;78.32
12636;BME280;6383;50.830;7.210;2023-02-13T05:12:22;102900.88;;;9.29;78.63
12636;BME280;6383;50.830;7.210;2023-02-13T05:14:51;102908.41;;;9.27;78.34
12636;BME280;6383;50.830;7.210;2023-02-13T05:17:22;102903.22;;;9.25;78.19
12636;BME280;6383;50.830;7.210;2023-02-13T05:19:51;102902.63;;;9.23;78.17
12636;BME280;6383;50.830;7.210;2023-02-13T05:22:19;102900.38;;;9.20;79.00
12636;BME280;6383;50.830;7.210;2023-02-13T05:25:07;102910.91;;;9.16;78.50
12636;BME280;6383;50.830;7.210;2023-02-13T05:27:34;102910.06;;;9.16;78.35
12636;BME280;6383;50.830;7.210;2023-02-13T05:30:04;102908.41;;;9.15;78.33
12636;BME280;6383;50.830;7.210;2023-02-13T05:32:33;102905.91;;;9.13;78.97
12636;BME280;6383;50.830;7.210;2023-02-13T05:35:01;102912.41;;;9.12;78.46
12636;BME280;6383;50.830;7.210;2023-02-13T05:37:30;102908.28;;;9.10;78.60
12636;BME280;6383;50.830;7.210;2023-02-13T05:39:59;102905.56;;;9.10;78.50
12636;BME280;6383;50.830;7.210;2023-02-13T05:42:26;102915.59;;;9.09;78.61
12636;BME280;6383;50.830;7.210;2023-02-13T05:44:56;102904.50;;;9.11;79.00
12636;BME280;6383;50.830;7.210;2023-02-13T05:47:23;102911.59;;;9.12;78.95
12636;BME280;6383;50.830;7.210;2023-02-13T05:49:53;102912.19;;;9.14;78.79
12636;BME280;6383;50.830;7.210;2023-02-13T05:52:22;102914.06;;;9.13;79.24
12636;BME280;6383;50.830;7.210;2023-02-13T05:54:51;102916.78;;;9.13;78.92
12636;BME280;6383;50.830;7.210;2023-02-13T05:57:20;102912.41;;;9.12;79.05
12636;BME280;6383;50.830;7.210;2023-02-13T05:59:49;102910.75;;;9.11;79.13
12636;BME280;6383;50.830;7.210;2023-02-13T06:02:17;102917.25;;;9.10;78.58
12636;BME280;6383;50.830;7.210;2023-02-13T06:04:44;102921.84;;;9.10;79.18
12636;BME280;6383;50.830;7.210;2023-02-13T06:07:14;102919.38;;;9.08;78.60
12636;BME280;6383;50.830;7.210;2023-02-13T06:09:43;102920.91;;;9.04;78.57
12636;BME280;6383;50.830;7.210;2023-02-13T06:12:11;102922.19;;;9.02;78.59
12636;BME280;6383;50.830;7.210;2023-02-13T06:14:38;102919.72;;;9.00;78.38
12636;BME280;6383;50.830;7.210;2023-02-13T06:17:06;102921.81;;;8.98;78.48
12636;BME280;6383;50.830;7.210;2023-02-13T06:19:35;102915.78;;;8.96;78.56
12636;BME280;6383;50.830;7.210;2023-02-13T06:22:02;102923.13;;;8.96;78.24
12636;BME280;6383;50.830;7.210;2023-02-13T06:24:32;102920.41;;;8.96;78.04
12636;BME280;6383;50.830;7.210;2023-02-13T06:27:02;102929.00;;;8.93;77.93
12636;BME280;6383;50.830;7.210;2023-02-13T06:29:29;102942.81;;;8.91;78.13
12636;BME280;6383;50.830;7.210;2023-02-13T06:31:57;102938.09;;;8.87;78.02
12636;BME280;6383;50.830;7.210;2023-02-13T06:34:27;102933.13;;;8.83;77.76
12636;BME280;6383;50.830;7.210;2023-02-13T06:36:54;102938.78;;;8.82;77.78
12636;BME280;6383;50.830;7.210;2023-02-13T06:39:23;102930.03;;;8.80;78.19
12636;BME280;6383;50.830;7.210;2023-02-13T06:41:53;102933.19;;;8.77;78.57
12636;BME280;6383;50.830;7.210;2023-02-13T06:44:22;102930.13;;;8.73;77.96
12636;BME280;6383;50.830;7.210;2023-02-13T06:46:50;102932.47;;;8.70;78.35
12636;BME280;6383;50.830;7.210;2023-02-13T06:49:19;102931.03;;;8.67;78.30
12636;BME280;6383;50.830;7.210;2023-02-13T06:51:48;102931.50;;;8.64;78.42
12636;BME280;6383;50.830;7.210;2023-02-13T06:54:17;102933.59;;;8.62;78.29
12636;BME280;6383;50.830;7.210;2023-02-13T06:56:46;102932.44;;;8.58;78.64
12636;BME280;6383;50.830;7.210;2023-02-13T06:59:16;102930.78;;;8.57;78.32
12636;BME280;6383;50.830;7.210;2023-02-13T07:01:44;102923.91;;;8.55;77.86
12636;BME280;6383;50.830;7.210;2023-02-13T07:04:13;102928.97;;;8.51;78.66
12636;BME280;6383;50.830;7.210;2023-02-13T07:06:41;102932.94;;;8.48;78.39
12636;BME280;6383;50.830;7.210;2023-02-13T07:09:09;102927.53;;;8.48;79.00
12636;BME280;6383;50.830;7.210;2023-02-13T07:11:39;102933.19;;;8.47;78.34
12636;BME280;6383;50.830;7.210;2023-02-13T07:14:08;102923.63;;;8.44;78.83
12636;BME280;6383;50.830;7.210;2023-02-13T07:16:38;102922.19;;;8.42;78.65
12636;BME280;6383;50.830;7.210;2023-02-13T07:19:07;102921.59;;;8.40;78.97
12636;BME280;6383;50.830;7.210;2023-02-13T07:21:35;102920.75;;;8.39;79.23
12636;BME280;6383;50.830;7.210;2023-02-13T07:24:05;102923.69;;;8.38;78.79
12636;BME280;6383;50.830;7.210;2023-02-13T07:26:34;102922.88;;;8.37;78.95
12636;BME280;6383;50.830;7.210;2023-02-13T07:29:01;102928.31;;;8.37;79.01
12636;BME280;6383;50.830;7.210;2023-02-13T07:31:33;102924.75;;;8.37;79.02
12636;BME280;6383;50.830;7.210;2023-02-13T07:34:05;102929.97;;;8.38;79.14
12636;BME280;6383;50.830;7.210;2023-02-13T07:36:37;102927.03;;;8.40;79.77
12636;BME280;6383;50.830;7.210;2023-02-13T07:39:07;102921.16;;;8.43;79.23
12636;BME280;6383;50.830;7.210;2023-02-13T07:41:36;102925.53;;;8.44;79.63
12636;BME280;6383;50.830;7.210;2023-02-13T07:44:05;102919.59;;;8.47;80.00
12636;BME280;6383;50.830;7.210;2023-02-13T07:46:34;102924.59;;;8.50;79.50
12636;BME280;6383;50.830;7.210;2023-02-13T07:49:01;102917.88;;;8.53;79.83
12636;BME280;6383;50.830;7.210;2023-02-13T07:51:31;102928.50;;;8.54;79.42
12636;BME280;6383;50.830;7.210;2023-02-13T07:54:00;102933.25;;;8.59;79.87
12636;BME280;6383;50.830;7.210;2023-02-13T07:56:31;102926.53;;;8.61;80.28
12636;BME280;6383;50.830;7.210;2023-02-13T07:58:59;102931.50;;;8.64;80.09
12636;BME280;6383;50.830;7.210;2023-02-13T08:01:27;102932.69;;;8.68;79.44
12636;BME280;6383;50.830;7.210;2023-02-13T08:03:57;102934.97;;;8.71;79.24
12636;BME280;6383;50.830;7.210;2023-02-13T08:06:24;102930.75;;;8.75;79.55
12636;BME280;6383;50.830;7.210;2023-02-13T08:08:54;102926.47;;;8.79;79.21
12636;BME280;6383;50.830;7.210;2023-02-13T08:11:37;102933.13;;;8.83;79.37
12636;BME280;6383;50.830;7.210;2023-02-13T08:14:23;102912.81;;;8.86;79.01
12636;BME280;6383;50.830;7.210;2023-02-13T08:16:51;102918.84;;;8.88;79.18
12636;BME280;6383;50.830;7.210;2023-02-13T08:19:19;102915.41;;;8.93;78.39
12636;BME280;6383;50.830;7.210;2023-02-13T08:21:48;102928.31;;;8.97;78.26
12636;BME280;6383;50.830;7.210;2023-02-13T08:24:17;102932.84;;;9.03;78.05
12636;BME280;6383;50.830;7.210;2023-02-13T08:26:46;102920.41;;;9.07;77.77
12636;BME280;6383;50.830;7.210;2023-02-13T08:29:13;102924.94;;;9.13;78.35
12636;BME280;6383;50.830;7.210;2023-02-13T08:31:42;102923.75;;;9.21;78.44
12636;BME280;6383;50.830;7.210;2023-02-13T08:34:11;102929.47;;;9.31;77.92
12636;BME280;6383;50.830;7.210;2023-02-13T08:36:40;102933.47;;;9.40;78.39
12636;BME280;6383;50.830;7.210;2023-02-13T08:39:09;102933.16;;;9.48;77.42
12636;BME280;6383;50.830;7.210;2023-02-13T08:41:40;102934.44;;;9.58;76.94
12636;BME280;6383;50.830;7.210;2023-02-13T08:44:10;102938.69;;;9.65;76.67
12636;BME280;6383;50.830;7.210;2023-02-13T08:46:37;102937.28;;;9.74;76.98
12636;BME280;6383;50.830;7.210;2023-02-13T08:49:06;102941.31;;;9.83;76.80
12636;BME280;6383;50.830;7.210;2023-02-13T08:51:35;102935.28;;;9.93;76.19
12636;BME280;6383;50.830;7.210;2023-02-13T08:54:04;102937.41;;;10.03;75.67
12636;BME280;6383;50.830;7.210;2023-02-13T08:56:33;102938.34;;;10.08;74.39
12636;BME280;6383;50.830;7.210;2023-02-13T08:59:03;102939.50;;;10.12;74.42
12636;BME280;6383;50.830;7.210;2023-02-13T09:01:32;102928.97;;;10.16;73.84
12636;BME280;6383;50.830;7.210;2023-02-13T09:04:01;102936.22;;;10.22;73.58
12636;BME280;6383;50.830;7.210;2023-02-13T09:06:30;102933.09;;;10.30;73.39
12636;BME280;6383;50.830;7.210;2023-02-13T09:08:58;102940.66;;;10.40;72.91
12636;BME280;6383;50.830;7.210;2023-02-13T09:11:30;102941.69;;;10.50;73.27
12636;BME280;6383;50.830;7.210;2023-02-13T09:13:59;102940.59;;;10.63;73.06
12636;BME280;6383;50.830;7.210;2023-02-13T09:16:29;102938.66;;;10.75;72.67
12636;BME280;6383;50.830;7.210;2023-02-13T09:18:58;102946.75;;;10.87;72.46
12636;BME280;6383;50.830;7.210;2023-02-13T09:21:27;102943.91;;;10.93;71.53
12636;BME280;6383;50.830;7.210;2023-02-13T09:23:56;102941.16;;;10.93;70.65
12636;BME280;6383;50.830;7.210;2023-02-13T09:26:25;102941.66;;;10.90;70.56
12636;BME280;6383;50.830;7.210;2023-02-13T09:28:53;102939.91;;;10.84;70.10
12636;BME280;6383;50.830;7.210;2023-02-13T09:31:22;102935.69;;;10.77;70.53
12636;BME280;6383;50.830;7.210;2023-02-13T09:33:51;102941.03;;;10.72;69.78
12636;BME280;6383;50.830;7.210;2023-02-13T09:36:21;102933.59;;;10.67;69.77
12636;BME280;6383;50.830;7.210;2023-02-13T09:38:51;102939.75;;;10.63;69.96
12636;BME280;6383;50.830;7.210;2023-02-13T09:41:22;102937.16;;;10.56;69.83
12636;BME280;6383;50.830;7.210;2023-02-13T09:43:53;102942.28;;;10.52;69.46
12636;BME280;6383;50.830;7.210;2023-02-13T09:46:28;102939.22;;;10.49;70.06
12636;BME280;6383;50.830;7.210;2023-02-13T09:49:05;102932.34;;;10.46;70.04
12636;BME280;6383;50.830;7.210;2023-02-13T09:51:35;102939.47;;;10.47;70.30
12636;BME280;6383;50.830;7.210;2023-02-13T09:54:07;102933.78;;;10.49;70.42
12636;BME280;6383;50.830;7.210;2023-02-13T09:56:39;102937.09;;;10.51;70.49
12636;BME280;6383;50.830;7.210;2023-02-13T09:59:22;102937.41;;;10.54;70.18
12636;BME280;6383;50.830;7.210;2023-02-13T10:02:01;102939.66;;;10.57;70.87
12636;BME280;6383;50.830;7.210;2023-02-13T10:04:42;102930.19;;;10.60;70.68
12636;BME280;6383;50.830;7.210;2023-02-13T10:07:20;102927.81;;;10.64;70.43
12636;BME280;6383;50.830;7.210;2023-02-13T10:09:57;102939.59;;;10.69;69.69
12636;BME280;6383;50.830;7.210;2023-02-13T10:12:42;102939.72;;;10.74;70.40
12636;BME280;6383;50.830;7.210;2023-02-13T10:15:20;102931.88;;;10.78;69.59
12636;BME280;6383;50.830;7.210;2023-02-13T10:17:55;102929.81;;;10.85;69.54
12636;BME280;6383;50.830;7.210;2023-02-13T10:20:31;102933.25;;;10.92;69.87
12636;BME280;6383;50.830;7.210;2023-02-13T10:23:13;102941.59;;;11.02;69.24
12636;BME280;6383;50.830;7.210;2023-02-13T10:25:49;102933.84;;;11.11;69.43
12636;BME280;6383;50.830;7.210;2023-02-13T10:28:30;102926.34;;;11.18;68.90
12636;BME280;6383;50.830;7.210;2023-02-13T10:31:03;102923.78;;;11.28;68.50
12636;BME280;6383;50.830;7.210;2023-02-13T10:33:38;102923.72;;;11.40;68.85
12636;BME280;6383;50.830;7.210;2023-02-13T10:36:18;102920.66;;;11.53;67.85
12636;BME280;6383;50.830;7.210;2023-02-13T10:38:54;102923.59;;;11.68;67.94
12636;BME280;6383;50.830;7.210;2023-02-13T10:41:24;102925.75;;;11.83;67.20
12636;BME280;6383;50.830;7.210;2023-02-13T10:44:08;102920.84;;;12.02;67.87
12636;BME280;6383;50.830;7.210;2023-02-13T10:46:47;102929.53;;;12.20;66.76
12636;BME280;6383;50.830;7.210;2023-02-13T10:49:40;102916.16;;;12.41;66.44
12636;BME280;6383;50.830;7.210;2023-02-13T10:52:22;102917.19;;;12.61;65.67
12636;BME280;6383;50.830;7.210;2023-02-13T10:55:07;102916.41;;;12.88;65.41
12636;BME280;6383;50.830;7.210;2023-02-13T10:57:52;102914.22;;;13.17;64.22
12636;BME280;6383;50.830;7.210;2023-02-13T11:00:27;102906.28;;;13.47;63.43
12636;BME280;6383;50.830;7.210;2023-02-13T11:02:58;102904.25;;;13.74;66.14
12636;BME280;6383;50.830;7.210;2023-02-13T11:05:30;102898.34;;;13.98;66.35
12636;BME280;6383;50.830;7.210;2023-02-13T11:08:03;102892.94;;;14.13;66.11
12636;BME280;6383;50.830;7.210;2023-02-13T11:10:40;102890.81;;;14.20;66.40
12636;BME280;6383;50.830;7.210;2023-02-13T11:13:13;102886.44;;;14.24;66.99
12636;BME280;6383;50.830;7.210;2023-02-13T11:15:41;102886.72;;;14.28;66.25
12636;BME280;6383;50.830;7.210;2023-02-13T11:18:11;102879.63;;;14.37;66.59
12636;BME280;6383;50.830;7.210;2023-02-13T11:20:40;102876.91;;;14.42;67.05
12636;BME280;6383;50.830;7.210;2023-02-13T11:26:00;102870.16;;;14.75;67.57
12636;BME280;6383;50.830;7.210;2023-02-13T11:28:30;102877.56;;;15.15;69.69
12636;BME280;6383;50.830;7.210;2023-02-13T11:31:09;66708.22;;;-145.35;100.00
12636;BME280;6383;50.830;7.210;2023-02-13T11:33:37;66708.22;;;-145.35;100.00
12636;BME280;6383;50.830;7.210;2023-02-13T11:36:07;66708.22;;;-145.35;100.00
12636;BME280;6383;50.830;7.210;2023-02-13T11:38:36;66708.22;;;-145.35;100.00
12636;BME280;6383;50.830;7.210;2023-02-13T11:41:08;66708.22;;;-145.35;100.00
12636;BME280;6383;50.830;7.210;2023-02-13T11:43:36;66708.22;;;-145.35;100.00
12636;BME280;6383;50.830;7.210;2023-02-13T11:46:12;66708.22;;;-145.35;100.00
12636;BME280;6383;50.830;7.210;2023-02-13T11:48:42;66708.22;;;-145.35;100.00
12636;BME280;6383;50.830;7.210;2023-02-13T11:51:09;66708.22;;;-145.35;100.00
12636;BME280;6383;50.830;7.210;2023-02-13T11:53:37;66708.22;;;-145.35;100.00
12636;BME280;6383;50.830;7.210;2023-02-13T11:56:09;66708.22;;;-145.35;100.00
12636;BME280;6383;50.830;7.210;2023-02-13T11:58:37;66708.22;;;-145.35;100.00
12636;BME280;6383;50.830;7.210;2023-02-13T12:01:10;66708.22;;;-145.35;100.00
12636;BME280;6383;50.830;7.210;2023-02-13T12:03:59;66708.22;;;-145.35;100.00
12636;BME280;6383;50.830;7.210;2023-02-13T12:06:27;66708.22;;;-145.35;100.00
12636;BME280;6383;50.830;7.210;2023-02-13T12:08:56;66708.22;;;-145.35;100.00
12636;BME280;6383;50.830;7.210;2023-02-13T12:11:33;66708.22;;;-145.35;100.00
12636;BME280;6383;50.830;7.210;2023-02-13T12:14:04;66708.22;;;-145.35;100.00
12636;BME280;6383;50.830;7.210;2023-02-13T12:16:35;66708.22;;;-145.35;100.00
12636;BME280;6383;50.830;7.210;2023-02-13T12:19:10;66708.22;;;-145.35;100.00
12636;BME280;6383;50.830;7.210;2023-02-13T12:21:58;66708.22;;;-145.35;100.00
12636;BME280;6383;50.830;7.210;2023-02-13T12:24:45;66708.22;;;-145.35;100.00
12636;BME280;6383;50.830;7.210;2023-02-13T12:27:26;66708.22;;;-145.35;100.00
12636;BME280;6383;50.830;7.210;2023-02-13T12:30:15;66708.22;;;-145.35;100.00
12636;BME280;6383;50.830;7.210;2023-02-13T12:32:55;66708.22;;;-145.35;100.00
12636;BME280;6383;50.830;7.210;2023-02-13T12:35:40;66708.22;;;-145.35;100.00
12636;BME280;6383;50.830;7.210;2023-02-13T12:38:29;66708.22;;;-145.35;100.00
12636;BME280;6383;50.830;7.210;2023-02-13T12:41:16;66708.22;;;-145.35;100.00
12636;BME280;6383;50.830;7.210;2023-02-13T12:46:34;66708.22;;;-145.35;100.00
12636;BME280;6383;50.830;7.210;2023-02-13T12:49:20;66708.22;;;-145.35;100.00
12636;BME280;6383;50.830;7.210;2023-02-13T12:52:01;66708.22;;;-145.35;100.00
12636;BME280;6383;50.830;7.210;2023-02-13T12:54:45;66708.22;;;-145.35;100.00
12636;BME280;6383;50.830;7.210;2023-02-13T12:57:34;66708.22;;;-145.35;100.00
12636;BME280;6383;50.830;7.210;2023-02-13T13:00:21;66708.22;;;-145.35;100.00
12636;BME280;6383;50.830;7.210;2023-02-13T13:06:09;66708.22;;;-145.35;100.00
12636;BME280;6383;50.830;7.210;2023-02-13T13:09:03;66708.22;;;-145.35;100.00
12636;BME280;6383;50.830;7.210;2023-02-13T13:14:38;66708.22;;;-145.35;100.00
12636;BME280;6383;50.830;7.210;2023-02-13T13:17:23;66708.22;;;-145.35;100.00
12636;BME280;6383;50.830;7.210;2023-02-13T13:20:06;66708.22;;;-145.35;100.00
12636;BME280;6383;50.830;7.210;2023-02-13T13:22:44;66708.22;;;-145.35;100.00
12636;BME280;6383;50.830;7.210;2023-02-13T13:25:23;66708.22;;;-145.35;100.00
12636;BME280;6383;50.830;7.210;2023-02-13T13:28:00;66708.22;;;-145.35;100.00
12636;BME280;6383;50.830;7.210;2023-02-13T13:30:33;66708.22;;;-145.35;100.00
12636;BME280;6383;50.830;7.210;2023-02-13T13:33:04;66708.22;;;-145.35;100.00
12636;BME280;6383;50.830;7.210;2023-02-13T13:35:42;66708.22;;;-145.35;100.00
12636;BME280;6383;50.830;7.210;2023-02-13T13:38:15;66708.22;;;-145.35;100.00
12636;BME280;6383;50.830;7.210;2023-02-13T13:40:50;66708.22;;;-145.35;100.00
12636;BME280;6383;50.830;7.210;2023-02-13T13:43:27;66708.22;;;-145.35;100.00
12636;BME280;6383;50.830;7.210;2023-02-13T13:46:05;66708.22;;;-145.35;100.00
12636;BME280;6383;50.830;7.210;2023-02-13T13:48:53;66708.22;;;-145.35;100.00
12636;BME280;6383;50.830;7.210;2023-02-13T13:51:25;66708.22;;;-145.35;100.00